createdAt,value
2023-05-09T00:00:57.742Z,27.50
2023-05-09T00:06:01.196Z,26.40
2023-05-09T00:11:04.351Z,23.90
2023-05-09T00:16:08.297Z,27.70
2023-05-09T00:21:11.640Z,24.80
2023-05-09T00:26:14.482Z,25.70
2023-05-09T00:31:17.210Z,26.10
2023-05-09T00:36:20.097Z,29.00
2023-05-09T00:41:22.900Z,26.70
2023-05-09T00:46:25.770Z,26.70
2023-05-09T00:51:28.776Z,23.80
2023-05-09T00:56:31.948Z,27.20
2023-05-09T01:01:34.875Z,27.20
2023-05-09T01:06:58.077Z,25.80
2023-05-09T01:12:09.986Z,25.90
2023-05-09T01:17:39.557Z,26.30
2023-05-09T01:22:49.994Z,27.30
2023-05-09T01:28:12.420Z,26.10
2023-05-09T01:33:18.292Z,25.00
2023-05-09T01:38:22.303Z,26.70
2023-05-09T01:43:27.546Z,25.80
2023-05-09T01:48:30.544Z,24.80
2023-05-09T01:53:33.511Z,27.70
2023-05-09T01:58:36.262Z,25.00
2023-05-09T02:03:39.108Z,24.50
2023-05-09T02:08:41.835Z,25.60
2023-05-09T02:13:44.894Z,24.10
2023-05-09T02:18:47.948Z,24.70
2023-05-09T02:23:50.694Z,22.90
2023-05-09T02:28:53.645Z,25.90
2023-05-09T02:33:56.844Z,23.60
2023-05-09T02:39:01.216Z,23.70
2023-05-09T02:44:05.366Z,25.40
2023-05-09T02:49:10.121Z,25.90
2023-05-09T02:54:13.374Z,23.90
2023-05-09T02:59:18.444Z,23.80
2023-05-09T03:04:23.115Z,26.30
2023-05-09T03:09:26.307Z,24.20
2023-05-09T03:14:29.110Z,22.90
2023-05-09T03:19:32.698Z,23.50
2023-05-09T03:24:35.508Z,26.10
2023-05-09T03:29:38.572Z,23.70
2023-05-09T03:34:41.754Z,22.30
2023-05-09T03:39:44.526Z,24.70
2023-05-09T03:44:47.707Z,26.20
2023-05-09T03:49:50.826Z,24.60
2023-05-09T03:54:53.842Z,26.40
2023-05-09T03:59:56.653Z,28.20
2023-05-09T04:05:01.708Z,23.10
2023-05-09T04:10:06.447Z,23.20
2023-05-09T04:15:11.184Z,27.10
2023-05-09T04:20:14.084Z,27.20
2023-05-09T04:34:05.422Z,31.00
2023-05-09T04:39:12.960Z,26.20
2023-05-09T05:21:59.420Z,23.40
2023-05-09T05:27:03.281Z,23.80
2023-05-09T05:32:07.693Z,16.80
2023-05-09T05:37:10.477Z,19.50
2023-05-09T05:43:53.528Z,16.70
2023-05-09T05:48:59.078Z,15.90
2023-05-09T06:01:24.305Z,16.10
2023-05-09T06:06:27.831Z,17.30
2023-05-09T06:11:30.847Z,14.30
2023-05-09T06:16:39.992Z,11.50
2023-05-09T06:21:42.812Z,11.70
2023-05-09T06:26:46.087Z,14.50
2023-05-09T06:31:49.222Z,8.20
2023-05-09T06:36:52.533Z,7.50
2023-05-09T06:41:55.322Z,6.50
2023-05-09T06:46:58.406Z,7.50
2023-05-09T06:52:02.753Z,8.30
2023-05-09T06:57:05.683Z,4.50
2023-05-09T07:02:08.870Z,4.20
2023-05-09T07:07:11.673Z,7.20
2023-05-09T07:12:14.385Z,7.70
2023-05-09T07:17:23.704Z,4.60
2023-05-09T07:22:28.785Z,5.20
2023-05-09T07:27:33.554Z,3.50
2023-05-09T07:32:36.479Z,4.10
2023-05-09T07:37:39.244Z,3.30
2023-05-09T07:42:49.495Z,3.70
2023-05-09T07:47:52.346Z,3.60
2023-05-09T07:52:55.785Z,2.90
2023-05-09T07:57:58.520Z,4.20
2023-05-09T08:03:01.554Z,2.40
2023-05-09T08:08:04.886Z,2.90
2023-05-09T08:13:07.717Z,6.50
2023-05-09T08:18:10.789Z,2.60
2023-05-09T08:23:13.870Z,2.40
2023-05-09T08:28:16.810Z,5.50
2023-05-09T08:33:19.537Z,5.00
2023-05-09T08:38:22.531Z,2.50
2023-05-09T08:43:46.076Z,3.70
2023-05-09T08:48:49.140Z,2.50
2023-05-09T08:53:52.037Z,4.00
2023-05-09T08:58:54.784Z,3.70
2023-05-09T09:03:57.641Z,2.70
2023-05-09T09:09:00.599Z,2.90
2023-05-09T09:14:18.592Z,5.30
2023-05-09T09:19:21.394Z,2.40
2023-05-09T09:24:24.664Z,4.50
2023-05-09T09:29:28.727Z,2.50
2023-05-09T09:34:31.829Z,2.40
2023-05-09T09:39:34.607Z,4.90
2023-05-09T09:44:37.355Z,2.60
2023-05-09T09:49:46.101Z,3.00
2023-05-09T09:54:48.996Z,3.40
2023-05-09T09:59:59.673Z,5.20
2023-05-09T10:05:09.307Z,2.60
2023-05-09T10:10:12.116Z,2.40
2023-05-09T10:15:18.728Z,2.80
2023-05-09T10:20:22.276Z,2.20
2023-05-09T10:25:40.666Z,5.30
2023-05-09T10:30:55.521Z,3.20
2023-05-09T12:19:51.112Z,3.80
2023-05-09T12:24:54.877Z,1.90
2023-05-09T12:35:00.573Z,3.10
2023-05-09T12:40:13.044Z,2.20
2023-05-09T12:45:16.284Z,3.10
2023-05-09T12:50:19.525Z,1.70
2023-05-09T12:55:22.245Z,2.50
2023-05-09T13:00:25.498Z,1.70
2023-05-09T13:05:28.305Z,1.80
2023-05-09T13:10:31.052Z,2.80
2023-05-09T13:15:34.006Z,3.10
2023-05-09T13:20:36.842Z,4.30
2023-05-09T13:30:42.338Z,2.00
2023-05-09T13:35:47.075Z,3.10
2023-05-09T13:40:51.639Z,2.90
2023-05-09T13:45:54.490Z,3.30
2023-05-09T13:50:59.592Z,2.10
2023-05-09T13:56:02.450Z,2.10
2023-05-09T14:01:05.455Z,2.50
2023-05-09T14:06:10.515Z,3.00
2023-05-09T14:11:13.730Z,3.50
2023-05-09T14:16:16.867Z,3.00
2023-05-09T14:21:19.684Z,2.00
2023-05-09T14:26:22.497Z,2.70
2023-05-09T14:31:25.413Z,3.00
2023-05-09T14:36:28.873Z,9.90
2023-05-09T14:41:31.819Z,12.80
2023-05-09T14:46:34.745Z,7.00
2023-05-09T14:51:37.744Z,1.80
2023-05-09T14:56:40.573Z,3.00
2023-05-09T15:01:43.624Z,3.90
2023-05-09T15:06:46.426Z,4.80
2023-05-09T15:11:49.498Z,1.90
2023-05-09T15:16:53.239Z,2.90
2023-05-09T15:21:56.038Z,3.30
2023-05-09T15:26:58.859Z,3.60
2023-05-09T15:32:01.567Z,3.00
2023-05-09T15:37:04.665Z,2.40
2023-05-09T15:42:08.920Z,3.90
2023-05-09T15:47:11.798Z,2.70
2023-05-09T15:52:14.909Z,3.90
2023-05-09T15:57:18.215Z,5.10
2023-05-09T16:02:22.277Z,2.50
2023-05-09T16:07:26.179Z,3.10
2023-05-09T16:12:29.337Z,3.20
2023-05-09T16:17:32.227Z,2.70
2023-05-09T16:22:34.998Z,3.30
2023-05-09T16:27:37.833Z,3.80
2023-05-09T16:32:40.696Z,6.00
2023-05-09T16:37:44.177Z,2.90
2023-05-09T16:42:47.204Z,3.50
2023-05-09T16:47:51.140Z,4.60
2023-05-09T16:52:54.273Z,3.20
2023-05-09T16:57:57.019Z,6.20
2023-05-09T17:02:59.861Z,3.60
2023-05-09T17:08:02.674Z,2.90
2023-05-09T17:13:08.583Z,2.90
2023-05-09T17:18:17.062Z,4.00
2023-05-09T17:23:22.238Z,3.20
2023-05-09T17:28:25.347Z,4.50
2023-05-09T17:33:28.219Z,3.00
2023-05-09T17:38:31.033Z,3.50
2023-05-09T17:43:34.309Z,6.10
2023-05-09T17:48:37.148Z,4.10
2023-05-09T17:53:39.987Z,4.70
2023-05-09T17:58:42.872Z,5.40
2023-05-09T18:03:46.315Z,3.40
2023-05-09T18:08:49.097Z,5.50
2023-05-09T18:13:51.897Z,4.70
2023-05-09T18:18:54.719Z,5.60
2023-05-09T18:23:57.729Z,6.80
2023-05-09T18:29:01.419Z,4.20
2023-05-09T18:34:05.655Z,6.30
2023-05-09T18:39:09.007Z,5.40
2023-05-09T18:44:11.783Z,6.30
2023-05-09T18:49:15.560Z,11.30
2023-05-09T18:54:18.376Z,18.70
2023-05-09T18:59:21.962Z,23.20
2023-05-09T19:04:25.334Z,24.20
2023-05-09T19:09:29.174Z,19.30
2023-05-09T19:14:32.198Z,21.00
2023-05-09T19:19:35.033Z,25.90
2023-05-09T19:24:37.902Z,17.00
2023-05-09T19:29:40.760Z,11.20
2023-05-09T19:34:43.676Z,10.20
2023-05-09T19:39:46.737Z,9.40
2023-05-09T19:44:52.308Z,12.00
2023-05-09T19:49:55.026Z,11.30
2023-05-09T19:54:57.843Z,11.20
2023-05-09T20:00:00.686Z,10.50
2023-05-09T20:05:03.799Z,10.00
2023-05-09T20:10:07.089Z,11.50
2023-05-09T20:15:10.309Z,10.00
2023-05-09T20:20:13.686Z,11.40
2023-05-09T20:25:16.827Z,14.10
2023-05-09T20:30:19.737Z,11.30
2023-05-09T20:35:23.077Z,13.20
2023-05-09T20:40:25.869Z,12.40
2023-05-09T20:45:28.740Z,12.20
2023-05-09T20:50:31.648Z,15.30
2023-05-09T20:55:34.764Z,12.20
2023-05-09T21:00:37.590Z,12.90
2023-05-09T21:05:40.846Z,15.80
2023-05-09T21:10:43.703Z,15.20
2023-05-09T21:15:50.346Z,16.30
2023-05-09T21:20:53.285Z,13.30
2023-05-09T21:25:56.106Z,16.70
2023-05-09T21:31:01.467Z,13.50
2023-05-09T21:36:04.625Z,14.20
2023-05-09T21:41:07.400Z,14.30
2023-05-09T21:46:10.418Z,12.50
2023-05-09T21:51:13.228Z,14.10
2023-05-09T21:56:15.923Z,14.40
2023-05-09T22:01:19.135Z,13.80
2023-05-09T22:06:22.075Z,15.60
2023-05-09T22:11:24.805Z,14.00
2023-05-09T22:16:27.706Z,13.20
2023-05-09T22:21:31.429Z,11.50
2023-05-09T22:26:34.241Z,14.70
2023-05-09T22:31:36.997Z,14.10
2023-05-09T22:36:39.880Z,13.90
2023-05-09T22:41:42.683Z,12.90
2023-05-09T22:46:45.385Z,13.10
2023-05-09T22:51:48.233Z,15.70
2023-05-09T22:56:51.143Z,13.10
2023-05-09T23:01:53.972Z,13.50
2023-05-09T23:06:56.753Z,13.20
2023-05-09T23:11:59.597Z,17.00
2023-05-09T23:17:02.461Z,12.60
2023-05-09T23:22:05.436Z,15.20
2023-05-09T23:27:08.343Z,12.10
2023-05-09T23:32:11.066Z,14.60
2023-05-09T23:37:13.844Z,13.70
2023-05-09T23:42:16.656Z,14.40
2023-05-09T23:47:19.361Z,13.10
2023-05-09T23:52:22.051Z,12.50
2023-05-09T23:57:24.897Z,11.50
